Air Navigation Services of Czech Republic
Airport: LKPR Updated:  23.09.2017 23:09:04  UTC
 METAR LKPR 23.09. 23:00 ...
METAR LKPR 232300Z 30003KT 9999 -RA FEW006 10/09 Q1021 NOSIG RMK REG QNH 1016=
 TAF LKPR 23.09. 23:00 ...
TAF LKPR 232300Z 2400/2506 29005KT 9999 -RA SCT030      TEMPO 2400/2506 5000 RA BKN013      PROB30 TEMPO 2400/2506 3000 RADZ BR OVC006      BECMG 2415/2418 VRB02KT=